PWSweather.com
Personal Weather Stations
Station Observations
SHAHALMS1
Eftra, Falkenberg, HA

EftraFalkenberg, HA

Lat: 56.85, Lon: 12.65

Elevation: 140

Station Type:

http://hem.passagen.se/risarp101

High Low Average
Temperature 72.9°F22.7°C 62.2°F16.8°C 68.0°F20.0°C
Dew Point 65.3°F18.5°C 48.4°F9.1°C 56.3°F13.5°C
Winds 22.7 mph 36.5 kmh 2.8 mph 4.5 kmh 9.0 mph SW14.5 kmh SW
Wind Gusts 39.4 mph63.4 kmh 4.7 mph7.6 kmh 17.0 mph27.4 kmh
Humidity 92% 46% 68%
Pressure 30.01 in1016.3 mb 29.59 in1002.0 mb -
Precipitation 0.39 in9.9 mm - -
Hour Temp Dew Point Humidity Winds Wind Gusts Pressure Precip Precip Rate Daily Precip Total
12:00 AM 69.8°F21.0°C 59.6°F15.3°C 70% 4.4 mph S7.1 kmh S 5.4 mph8.7 kmh 29.74 in1007.1 mb 0.00 in0.0 mm 0.00 in0.0 mm 0.00 in0.0 mm
12:15 AM 68.2°F20.1°C 61.1°F16.2°C 78% 5.8 mph S9.3 kmh S 20.0 mph32.2 kmh 29.74 in1007.1 mb 0.19 in4.8 mm 0.76 in19.3 mm 0.20 in5.1 mm
12:30 AM 67.1°F19.5°C 61.4°F16.3°C 82% 4.1 mph S6.6 kmh S 5.0 mph8.0 kmh 29.74 in1007.1 mb 0.24 in6.1 mm 0.20 in5.1 mm 0.24 in6.1 mm
12:45 AM 66.6°F19.2°C 60.9°F16.1°C 82% 6.0 mph S9.7 kmh S 8.9 mph14.3 kmh 29.71 in1006.1 mb 0.30 in7.6 mm 0.24 in6.1 mm 0.30 in7.6 mm
01:00 AM 66.4°F19.1°C 61.4°F16.3°C 84% 3.1 mph ESE5.0 kmh ESE 8.6 mph13.8 kmh 29.71 in1006.1 mb 0.39 in9.9 mm 0.12 in3.0 mm 0.39 in9.9 mm
01:15 AM 66.0°F18.9°C 61.0°F16.1°C 84% 3.8 mph E6.1 kmh E 7.9 mph12.7 kmh 29.68 in1005.1 mb 0.19 in4.8 mm 0.00 in0.0 mm 0.39 in9.9 mm
01:30 AM 65.8°F18.8°C 61.5°F16.4°C 86% 5.5 mph E8.9 kmh E 10.4 mph16.7 kmh 29.65 in1004.1 mb 0.15 in3.8 mm 0.00 in0.0 mm 0.39 in9.9 mm
01:45 AM 65.8°F18.8°C 62.2°F16.8°C 88% 7.2 mph ESE11.6 kmh ESE 13.6 mph21.9 kmh 29.68 in1005.1 mb 0.09 in2.3 mm 0.00 in0.0 mm 0.39 in9.9 mm
02:00 AM 66.0°F18.9°C 62.4°F16.9°C 88% 6.5 mph ESE10.5 kmh ESE 13.6 mph21.9 kmh 29.65 in1004.1 mb 0.00 in0.0 mm 0.00 in0.0 mm 0.39 in9.9 mm
02:15 AM 66.0°F18.9°C 62.4°F16.9°C 88% 4.7 mph ESE7.6 kmh ESE 6.8 mph10.9 kmh 29.62 in1003.0 mb 0.00 in0.0 mm 0.00 in0.0 mm 0.39 in9.9 mm
02:30 AM 66.0°F18.9°C 62.4°F16.9°C 88% 5.5 mph ESE8.9 kmh ESE 9.3 mph15.0 kmh 29.59 in1002.0 mb 0.00 in0.0 mm 0.00 in0.0 mm 0.39 in9.9 mm
02:45 AM 66.4°F19.1°C 63.0°F17.2°C 89% 4.5 mph SSE7.2 kmh SSE 16.5 mph26.6 kmh 29.62 in1003.0 mb 0.00 in0.0 mm 0.00 in0.0 mm 0.39 in9.9 mm
03:00 AM 66.2°F19.0°C 62.9°F17.2°C 89% 4.9 mph SE7.9 kmh SE 17.2 mph27.7 kmh 29.62 in1003.0 mb 0.00 in0.0 mm 0.00 in0.0 mm 0.39 in9.9 mm
03:15 AM 66.0°F18.9°C 62.7°F17.1°C 89% 4.9 mph ESE7.9 kmh ESE 12.5 mph20.1 kmh 29.62 in1003.0 mb 0.00 in0.0 mm 0.00 in0.0 mm 0.39 in9.9 mm
03:30 AM 65.8°F18.8°C 62.5°F16.9°C 89% 4.9 mph SSE7.9 kmh SSE 10.0 mph16.1 kmh 29.62 in1003.0 mb 0.00 in0.0 mm 0.00 in0.0 mm 0.39 in9.9 mm
03:45 AM 66.0°F18.9°C 63.0°F17.2°C 90% 6.0 mph ESE9.7 kmh ESE 11.8 mph19.0 kmh 29.62 in1003.0 mb 0.00 in0.0 mm 0.00 in0.0 mm 0.39 in9.9 mm
04:00 AM 66.2°F19.0°C 63.2°F17.3°C 90% 4.0 mph SE6.4 kmh SE 8.9 mph14.3 kmh 29.62 in1003.0 mb 0.00 in0.0 mm 0.00 in0.0 mm 0.39 in9.9 mm
04:15 AM 66.7°F19.3°C 64.0°F17.8°C 91% 6.9 mph S11.1 kmh S 15.4 mph24.8 kmh 29.59 in1002.0 mb 0.00 in0.0 mm 0.00 in0.0 mm 0.39 in9.9 mm
04:30 AM 67.1°F19.5°C 64.4°F18.0°C 91% 2.8 mph SE4.5 kmh SE 9.7 mph15.6 kmh 29.62 in1003.0 mb 0.00 in0.0 mm 0.00 in0.0 mm 0.39 in9.9 mm
04:45 AM 67.6°F19.8°C 65.2°F18.4°C 92% 3.9 mph SSE6.3 kmh SSE 5.4 mph8.7 kmh 29.62 in1003.0 mb 0.00 in0.0 mm 0.00 in0.0 mm 0.39 in9.9 mm
05:00 AM 67.8°F19.9°C 65.1°F18.4°C 91% 5.1 mph S8.2 kmh S 8.9 mph14.3 kmh 29.62 in1003.0 mb 0.00 in0.0 mm 0.00 in0.0 mm 0.39 in9.9 mm
05:15 AM 68.0°F20.0°C 65.3°F18.5°C 91% 3.8 mph S6.1 kmh S 8.9 mph14.3 kmh 29.59 in1002.0 mb 0.00 in0.0 mm 0.00 in0.0 mm 0.39 in9.9 mm
05:30 AM 68.0°F20.0°C 65.0°F18.3°C 90% 3.4 mph S5.5 kmh S 4.7 mph7.6 kmh 29.62 in1003.0 mb 0.00 in0.0 mm 0.00 in0.0 mm 0.39 in9.9 mm
05:45 AM 67.6°F19.8°C 63.6°F17.6°C 87% 3.8 mph S6.1 kmh S 4.7 mph7.6 kmh 29.62 in1003.0 mb 0.00 in0.0 mm 0.00 in0.0 mm 0.39 in9.9 mm
06:00 AM 67.5°F19.7°C 62.1°F16.7°C 83% 3.8 mph S6.1 kmh S 4.7 mph7.6 kmh 29.62 in1003.0 mb 0.00 in0.0 mm 0.00 in0.0 mm 0.39 in9.9 mm
06:15 AM 66.9°F19.4°C 60.9°F16.1°C 81% 9.6 mph S15.4 kmh S 11.8 mph19.0 kmh 29.62 in1003.0 mb 0.00 in0.0 mm 0.00 in0.0 mm 0.39 in9.9 mm
06:30 AM 66.9°F19.4°C 60.5°F15.8°C 80% 9.6 mph S15.4 kmh S 11.8 mph19.0 kmh 29.62 in1003.0 mb 0.00 in0.0 mm 0.00 in0.0 mm 0.39 in9.9 mm
06:45 AM 67.3°F19.6°C 59.8°F15.4°C 77% 8.1 mph S13.0 kmh S 10.0 mph16.1 kmh 29.65 in1004.1 mb 0.00 in0.0 mm 0.00 in0.0 mm 0.39 in9.9 mm
07:00 AM 67.8°F19.9°C 60.3°F15.7°C 77% 13.3 mph W21.4 kmh W 21.8 mph35.1 kmh 29.65 in1004.1 mb 0.00 in0.0 mm 0.00 in0.0 mm 0.39 in9.9 mm
07:15 AM 67.6°F19.8°C 60.2°F15.7°C 77% 12.5 mph W20.1 kmh W 15.4 mph24.8 kmh 29.65 in1004.1 mb 0.00 in0.0 mm 0.00 in0.0 mm 0.39 in9.9 mm
07:30 AM 67.8°F19.9°C 60.3°F15.7°C 77% 22.7 mph S36.5 kmh S 27.9 mph44.9 kmh 29.65 in1004.1 mb 0.00 in0.0 mm 0.00 in0.0 mm 0.39 in9.9 mm
07:45 AM 68.0°F20.0°C 60.5°F15.8°C 77% 10.8 mph S17.4 kmh S 35.4 mph57.0 kmh 29.68 in1005.1 mb 0.00 in0.0 mm 0.00 in0.0 mm 0.39 in9.9 mm
08:00 AM 67.5°F19.7°C 61.1°F16.2°C 80% 13.7 mph S22.0 kmh S 16.8 mph27.0 kmh 29.68 in1005.1 mb 0.00 in0.0 mm 0.00 in0.0 mm 0.39 in9.9 mm
08:15 AM 67.6°F19.8°C 61.2°F16.2°C 80% 15.3 mph S24.6 kmh S 26.1 mph42.0 kmh 29.65 in1004.1 mb 0.00 in0.0 mm 0.00 in0.0 mm 0.39 in9.9 mm
08:30 AM 68.0°F20.0°C 60.5°F15.8°C 77% 14.5 mph S23.3 kmh S 17.9 mph28.8 kmh 29.68 in1005.1 mb 0.00 in0.0 mm 0.00 in0.0 mm 0.39 in9.9 mm
08:45 AM 69.3°F20.7°C 59.8°F15.4°C 72% 17.8 mph SW28.6 kmh SW 24.7 mph39.8 kmh 29.71 in1006.1 mb 0.00 in0.0 mm 0.00 in0.0 mm 0.39 in9.9 mm
09:00 AM 70.0°F21.1°C 59.3°F15.2°C 69% 12.3 mph SSW19.8 kmh SSW 24.3 mph39.1 kmh 29.74 in1007.1 mb 0.00 in0.0 mm 0.00 in0.0 mm 0.39 in9.9 mm
09:15 AM 70.0°F21.1°C 57.7°F14.3°C 65% 19.7 mph SW31.7 kmh SW 31.9 mph51.3 kmh 29.74 in1007.1 mb 0.00 in0.0 mm 0.00 in0.0 mm 0.39 in9.9 mm
09:30 AM 70.3°F21.3°C 57.6°F14.2°C 64% 16.9 mph SW27.2 kmh SW 39.4 mph63.4 kmh 29.74 in1007.1 mb 0.00 in0.0 mm 0.00 in0.0 mm 0.39 in9.9 mm
09:45 AM 70.7°F21.5°C 57.9°F14.4°C 64% 14.4 mph SW23.2 kmh SW 35.8 mph57.6 kmh 29.74 in1007.1 mb 0.00 in0.0 mm 0.00 in0.0 mm 0.39 in9.9 mm
10:00 AM 70.5°F21.4°C 56.9°F13.8°C 62% 15.3 mph WSW24.6 kmh WSW 24.7 mph39.8 kmh 29.77 in1008.1 mb 0.00 in0.0 mm 0.00 in0.0 mm 0.39 in9.9 mm
10:15 AM 69.4°F20.8°C 55.9°F13.3°C 62% 11.7 mph WSW18.8 kmh WSW 24.7 mph39.8 kmh 29.80 in1009.1 mb 0.00 in0.0 mm 0.00 in0.0 mm 0.39 in9.9 mm
10:30 AM 69.6°F20.9°C 56.5°F13.6°C 63% 13.8 mph SW22.2 kmh SW 27.2 mph43.8 kmh 29.80 in1009.1 mb 0.00 in0.0 mm 0.00 in0.0 mm 0.39 in9.9 mm
10:45 AM 69.8°F21.0°C 55.7°F13.2°C 61% 12.4 mph SW20.0 kmh SW 31.9 mph51.3 kmh 29.80 in1009.1 mb 0.00 in0.0 mm 0.00 in0.0 mm 0.39 in9.9 mm
11:00 AM 70.3°F21.3°C 56.2°F13.4°C 61% 14.5 mph SSW23.3 kmh SSW 26.5 mph42.6 kmh 29.80 in1009.1 mb 0.00 in0.0 mm 0.00 in0.0 mm 0.39 in9.9 mm
11:15 AM 70.3°F21.3°C 56.2°F13.4°C 61% 13.5 mph SW21.7 kmh SW 34.4 mph55.4 kmh 29.80 in1009.1 mb 0.00 in0.0 mm 0.00 in0.0 mm 0.39 in9.9 mm
11:30 AM 70.9°F21.6°C 56.8°F13.8°C 61% 12.3 mph SW19.8 kmh SW 30.4 mph48.9 kmh 29.80 in1009.1 mb 0.00 in0.0 mm 0.00 in0.0 mm 0.39 in9.9 mm
11:45 AM 72.7°F22.6°C 57.0°F13.9°C 58% 12.9 mph WSW20.8 kmh WSW 37.2 mph59.9 kmh 29.83 in1010.2 mb 0.00 in0.0 mm 0.00 in0.0 mm 0.39 in9.9 mm
12:00 PM 72.9°F22.7°C 56.2°F13.4°C 56% 14.8 mph WSW23.8 kmh WSW 35.8 mph57.6 kmh 29.83 in1010.2 mb 0.00 in0.0 mm 0.00 in0.0 mm 0.39 in9.9 mm
12:15 PM 72.0°F22.2°C 55.4°F13.0°C 56% 15.0 mph WSW24.1 kmh WSW 31.5 mph50.7 kmh 29.86 in1011.2 mb 0.00 in0.0 mm 0.00 in0.0 mm 0.39 in9.9 mm
12:30 PM 70.9°F21.6°C 56.8°F13.8°C 61% 9.4 mph W15.1 kmh W 17.5 mph28.2 kmh 29.86 in1011.2 mb 0.00 in0.0 mm 0.00 in0.0 mm 0.39 in9.9 mm
12:45 PM 71.1°F21.7°C 56.5°F13.6°C 60% 11.7 mph W18.8 kmh W 22.5 mph36.2 kmh 29.83 in1010.2 mb 0.00 in0.0 mm 0.00 in0.0 mm 0.39 in9.9 mm
01:00 PM 71.2°F21.8°C 56.2°F13.4°C 59% 11.8 mph WSW19.0 kmh WSW 28.3 mph45.5 kmh 29.86 in1011.2 mb 0.00 in0.0 mm 0.00 in0.0 mm 0.39 in9.9 mm
01:15 PM 70.9°F21.6°C 54.4°F12.4°C 56% 11.4 mph W18.3 kmh W 34.4 mph55.4 kmh 29.86 in1011.2 mb 0.00 in0.0 mm 0.00 in0.0 mm 0.39 in9.9 mm
01:30 PM 70.2°F21.2°C 53.2°F11.8°C 55% 11.7 mph W18.8 kmh W 23.6 mph38.0 kmh 29.89 in1012.2 mb 0.00 in0.0 mm 0.00 in0.0 mm 0.39 in9.9 mm
01:45 PM 71.2°F21.8°C 53.7°F12.1°C 54% 13.1 mph W21.1 kmh W 29.7 mph47.8 kmh 29.89 in1012.2 mb 0.00 in0.0 mm 0.00 in0.0 mm 0.39 in9.9 mm
02:00 PM 71.6°F22.0°C 54.1°F12.3°C 54% 11.6 mph WSW18.7 kmh WSW 25.8 mph41.5 kmh 29.92 in1013.2 mb 0.00 in0.0 mm 0.00 in0.0 mm 0.39 in9.9 mm
02:15 PM 71.4°F21.9°C 52.9°F11.6°C 52% 10.1 mph W16.3 kmh W 27.2 mph43.8 kmh 29.89 in1012.2 mb 0.00 in0.0 mm 0.00 in0.0 mm 0.39 in9.9 mm
02:30 PM 71.4°F21.9°C 52.3°F11.3°C 51% 7.5 mph W12.1 kmh W 16.5 mph26.6 kmh 29.89 in1012.2 mb 0.00 in0.0 mm 0.00 in0.0 mm 0.39 in9.9 mm
02:45 PM 71.2°F21.8°C 52.2°F11.2°C 51% 6.8 mph WNW10.9 kmh WNW 12.2 mph19.6 kmh 29.92 in1013.2 mb 0.00 in0.0 mm 0.00 in0.0 mm 0.39 in9.9 mm
03:00 PM 72.5°F22.5°C 52.8°F11.6°C 50% 9.0 mph W14.5 kmh W 20.4 mph32.8 kmh 29.92 in1013.2 mb 0.00 in0.0 mm 0.00 in0.0 mm 0.39 in9.9 mm
03:15 PM 72.9°F22.7°C 52.0°F11.1°C 48% 10.7 mph WNW17.2 kmh WNW 23.3 mph37.5 kmh 29.95 in1014.2 mb 0.00 in0.0 mm 0.00 in0.0 mm 0.39 in9.9 mm
03:30 PM 72.5°F22.5°C 51.7°F10.9°C 48% 7.8 mph W12.6 kmh W 20.8 mph33.5 kmh 29.95 in1014.2 mb 0.00 in0.0 mm 0.00 in0.0 mm 0.39 in9.9 mm
03:45 PM 72.0°F22.2°C 50.6°F10.3°C 47% 6.2 mph W10.0 kmh W 12.2 mph19.6 kmh 29.95 in1014.2 mb 0.00 in0.0 mm 0.00 in0.0 mm 0.39 in9.9 mm
04:00 PM 72.0°F22.2°C 50.0°F10.0°C 46% 9.7 mph W15.6 kmh W 17.2 mph27.7 kmh 29.95 in1014.2 mb 0.00 in0.0 mm 0.00 in0.0 mm 0.39 in9.9 mm
04:15 PM 72.0°F22.2°C 51.2°F10.7°C 48% 7.9 mph WSW12.7 kmh WSW 17.2 mph27.7 kmh 29.98 in1015.2 mb 0.00 in0.0 mm 0.00 in0.0 mm 0.39 in9.9 mm
04:30 PM 71.6°F22.0°C 50.9°F10.5°C 48% 7.5 mph W12.1 kmh W 14.0 mph22.5 kmh 29.98 in1015.2 mb 0.00 in0.0 mm 0.00 in0.0 mm 0.39 in9.9 mm
04:45 PM 71.1°F21.7°C 50.4°F10.2°C 48% 7.8 mph W12.6 kmh W 17.2 mph27.7 kmh 29.98 in1015.2 mb 0.00 in0.0 mm 0.00 in0.0 mm 0.39 in9.9 mm
05:00 PM 70.3°F21.3°C 50.3°F10.2°C 49% 13.3 mph WSW21.4 kmh WSW 19.0 mph30.6 kmh 29.98 in1015.2 mb 0.00 in0.0 mm 0.00 in0.0 mm 0.39 in9.9 mm
05:15 PM 69.6°F20.9°C 50.7°F10.4°C 51% 8.3 mph W13.4 kmh W 17.2 mph27.7 kmh 29.98 in1015.2 mb 0.00 in0.0 mm 0.00 in0.0 mm 0.39 in9.9 mm
05:30 PM 69.4°F20.8°C 50.5°F10.3°C 51% 5.4 mph WSW8.7 kmh WSW 16.1 mph25.9 kmh 29.98 in1015.2 mb 0.00 in0.0 mm 0.00 in0.0 mm 0.39 in9.9 mm
05:45 PM 68.9°F20.5°C 50.0°F10.0°C 51% 4.4 mph W7.1 kmh W 5.4 mph8.7 kmh 29.98 in1015.2 mb 0.00 in0.0 mm 0.00 in0.0 mm 0.39 in9.9 mm
06:00 PM 68.5°F20.3°C 49.7°F9.8°C 51% 4.4 mph W7.1 kmh W 5.4 mph8.7 kmh 29.98 in1015.2 mb 0.00 in0.0 mm 0.00 in0.0 mm 0.39 in9.9 mm
06:15 PM 68.0°F20.0°C 49.2°F9.6°C 51% 7.7 mph WNW12.4 kmh WNW 11.1 mph17.9 kmh 29.98 in1015.2 mb 0.00 in0.0 mm 0.00 in0.0 mm 0.39 in9.9 mm
06:30 PM 67.3°F19.6°C 49.0°F9.4°C 52% 6.1 mph WNW9.8 kmh WNW 9.7 mph15.6 kmh 29.98 in1015.2 mb 0.00 in0.0 mm 0.00 in0.0 mm 0.39 in9.9 mm
06:45 PM 66.7°F19.3°C 49.1°F9.5°C 53% 7.8 mph WSW12.6 kmh WSW 14.0 mph22.5 kmh 30.01 in1016.3 mb 0.00 in0.0 mm 0.00 in0.0 mm 0.39 in9.9 mm
07:00 PM 66.6°F19.2°C 51.8°F11.0°C 59% 7.3 mph W11.7 kmh W 12.2 mph19.6 kmh 30.01 in1016.3 mb 0.00 in0.0 mm 0.00 in0.0 mm 0.39 in9.9 mm
07:15 PM 65.3°F18.5°C 52.8°F11.6°C 64% 9.6 mph WSW15.4 kmh WSW 20.8 mph33.5 kmh 29.98 in1015.2 mb 0.00 in0.0 mm 0.00 in0.0 mm 0.39 in9.9 mm
07:30 PM 64.8°F18.2°C 52.7°F11.5°C 65% 5.5 mph SSW8.9 kmh SSW 7.9 mph12.7 kmh 29.98 in1015.2 mb 0.00 in0.0 mm 0.00 in0.0 mm 0.39 in9.9 mm
07:45 PM 64.4°F18.0°C 52.4°F11.3°C 65% 6.8 mph S10.9 kmh S 10.4 mph16.7 kmh 29.98 in1015.2 mb 0.00 in0.0 mm 0.00 in0.0 mm 0.39 in9.9 mm
08:00 PM 64.2°F17.9°C 52.2°F11.2°C 65% 7.1 mph W11.4 kmh W 12.9 mph20.8 kmh 29.98 in1015.2 mb 0.00 in0.0 mm 0.00 in0.0 mm 0.39 in9.9 mm
08:15 PM 64.4°F18.0°C 52.0°F11.1°C 64% 7.1 mph SW11.4 kmh SW 12.5 mph20.1 kmh 29.98 in1015.2 mb 0.00 in0.0 mm 0.00 in0.0 mm 0.39 in9.9 mm
08:30 PM 64.4°F18.0°C 52.4°F11.3°C 65% 7.9 mph WSW12.7 kmh WSW 14.0 mph22.5 kmh 29.98 in1015.2 mb 0.00 in0.0 mm 0.00 in0.0 mm 0.39 in9.9 mm
08:45 PM 64.2°F17.9°C 51.8°F11.0°C 64% 8.4 mph W13.5 kmh W 14.3 mph23.0 kmh 29.98 in1015.2 mb 0.00 in0.0 mm 0.00 in0.0 mm 0.39 in9.9 mm
09:00 PM 64.2°F17.9°C 51.8°F11.0°C 64% 7.4 mph SW11.9 kmh SW 14.3 mph23.0 kmh 29.98 in1015.2 mb 0.00 in0.0 mm 0.00 in0.0 mm 0.39 in9.9 mm
09:15 PM 64.4°F18.0°C 51.1°F10.6°C 62% 4.9 mph W7.9 kmh W 6.1 mph9.8 kmh 29.95 in1014.2 mb 0.00 in0.0 mm 0.00 in0.0 mm 0.39 in9.9 mm
09:30 PM 64.4°F18.0°C 51.5°F10.8°C 63% 7.4 mph WSW11.9 kmh WSW 14.7 mph23.7 kmh 29.98 in1015.2 mb 0.00 in0.0 mm 0.00 in0.0 mm 0.39 in9.9 mm
09:45 PM 64.2°F17.9°C 51.4°F10.8°C 63% 9.9 mph W15.9 kmh W 12.2 mph19.6 kmh 29.98 in1015.2 mb 0.00 in0.0 mm 0.00 in0.0 mm 0.39 in9.9 mm
10:00 PM 64.2°F17.9°C 50.9°F10.5°C 62% 9.9 mph W15.9 kmh W 12.2 mph19.6 kmh 29.98 in1015.2 mb 0.00 in0.0 mm 0.00 in0.0 mm 0.39 in9.9 mm
10:15 PM 64.4°F18.0°C 51.5°F10.8°C 63% 9.9 mph W15.9 kmh W 12.2 mph19.6 kmh 29.98 in1015.2 mb 0.00 in0.0 mm 0.00 in0.0 mm 0.39 in9.9 mm
10:30 PM 64.2°F17.9°C 51.8°F11.0°C 64% 9.9 mph W15.9 kmh W 12.2 mph19.6 kmh 29.98 in1015.2 mb 0.00 in0.0 mm 0.00 in0.0 mm 0.39 in9.9 mm
10:45 PM 63.9°F17.7°C 50.6°F10.3°C 62% 9.9 mph W15.9 kmh W 12.2 mph19.6 kmh 29.98 in1015.2 mb 0.00 in0.0 mm 0.00 in0.0 mm 0.39 in9.9 mm
11:00 PM 63.7°F17.6°C 50.0°F10.0°C 61% 5.5 mph W8.9 kmh W 6.8 mph10.9 kmh 29.98 in1015.2 mb 0.00 in0.0 mm 0.00 in0.0 mm 0.39 in9.9 mm
11:15 PM 63.0°F17.2°C 48.4°F9.1°C 59% 5.5 mph W8.9 kmh W 6.8 mph10.9 kmh 30.01 in1016.3 mb 0.00 in0.0 mm 0.00 in0.0 mm 0.39 in9.9 mm
11:30 PM 62.6°F17.0°C 48.5°F9.2°C 60% 4.7 mph W7.6 kmh W 5.7 mph9.2 kmh 29.98 in1015.2 mb 0.00 in0.0 mm 0.00 in0.0 mm 0.39 in9.9 mm
11:45 PM 62.2°F16.8°C 49.1°F9.5°C 62% 9.6 mph W15.4 kmh W 11.8 mph19.0 kmh 29.98 in1015.2 mb 0.00 in0.0 mm 0.00 in0.0 mm 0.39 in9.9 mm